createdAt,value
2023-03-27T00:01:28.793Z,52.45
2023-03-27T00:03:56.119Z,52.27
2023-03-27T00:06:23.231Z,52.31
2023-03-27T00:08:52.281Z,53.27
2023-03-27T00:11:21.491Z,53.65
2023-03-27T00:13:51.384Z,53.99
2023-03-27T00:16:18.959Z,54.51
2023-03-27T00:18:46.092Z,54.78
2023-03-27T00:21:14.908Z,55.32
2023-03-27T00:23:42.625Z,55.33
2023-03-27T00:26:10.328Z,55.46
2023-03-27T00:28:37.673Z,55.94
2023-03-27T00:31:10.197Z,56.52
2023-03-27T00:33:37.807Z,56.76
2023-03-27T00:36:06.783Z,56.95
2023-03-27T00:38:34.066Z,57.31
2023-03-27T00:41:01.777Z,57.48
2023-03-27T00:43:31.155Z,57.84
2023-03-27T00:46:03.368Z,57.97
2023-03-27T00:48:35.614Z,58.58
2023-03-27T00:51:05.448Z,59.39
2023-03-27T00:53:33.350Z,58.86
2023-03-27T00:56:03.843Z,59.55
2023-03-27T00:58:36.655Z,60.12
2023-03-27T01:01:03.693Z,61.25
2023-03-27T01:03:33.126Z,61.61
2023-03-27T01:06:02.108Z,61.61
2023-03-27T01:08:31.087Z,60.60
2023-03-27T01:11:12.391Z,61.10
2023-03-27T01:14:01.189Z,62.07
2023-03-27T01:16:36.982Z,62.92
2023-03-27T01:19:30.283Z,63.80
2023-03-27T01:22:35.556Z,64.01
2023-03-27T01:25:50.137Z,64.53
2023-03-27T01:28:26.575Z,65.52
2023-03-27T01:30:59.390Z,65.86
2023-03-27T01:33:54.278Z,65.80
2023-03-27T01:36:45.693Z,65.52
2023-03-27T01:39:45.722Z,65.87
2023-03-27T01:42:22.594Z,66.22
2023-03-27T01:44:54.476Z,66.72
2023-03-27T01:47:43.343Z,66.26
2023-03-27T01:50:19.757Z,66.62
2023-03-27T01:52:53.680Z,67.13
2023-03-27T01:55:27.047Z,68.38
2023-03-27T01:57:59.831Z,69.03
2023-03-27T02:00:52.280Z,69.03
2023-03-27T02:03:20.958Z,69.58
2023-03-27T02:05:54.061Z,68.77
2023-03-27T02:08:25.161Z,68.56
2023-03-27T02:10:58.579Z,69.22
2023-03-27T02:13:32.108Z,69.79
2023-03-27T02:16:01.816Z,70.24
2023-03-27T02:18:33.361Z,71.05
2023-03-27T02:21:00.807Z,72.55
2023-03-27T02:23:28.390Z,72.92
2023-03-27T02:25:57.452Z,73.05
2023-03-27T02:28:47.677Z,73.68
2023-03-27T02:31:34.606Z,73.96
2023-03-27T02:34:35.134Z,73.40
2023-03-27T02:37:14.808Z,73.00
2023-03-27T02:39:49.947Z,72.67
2023-03-27T02:42:24.250Z,72.78
2023-03-27T02:44:57.070Z,72.79
2023-03-27T02:47:31.185Z,72.46
2023-03-27T02:50:03.223Z,71.61
2023-03-27T02:52:37.221Z,70.65
2023-03-27T02:55:12.474Z,68.60
2023-03-27T02:57:52.078Z,69.41
2023-03-27T03:00:22.704Z,70.56
2023-03-27T03:02:57.310Z,71.06
2023-03-27T03:05:26.971Z,71.59
2023-03-27T03:07:54.481Z,71.94
2023-03-27T03:10:21.502Z,72.04
2023-03-27T03:12:50.018Z,72.29
2023-03-27T03:15:20.026Z,72.01
2023-03-27T03:17:47.432Z,71.60
2023-03-27T03:20:14.702Z,71.58
2023-03-27T03:22:42.429Z,71.52
2023-03-27T03:25:10.544Z,71.34
2023-03-27T03:27:37.754Z,71.00
2023-03-27T03:30:08.484Z,71.13
2023-03-27T03:32:35.418Z,71.29
2023-03-27T03:35:02.606Z,71.18
2023-03-27T03:37:29.444Z,68.55
2023-03-27T03:39:56.314Z,68.81
2023-03-27T03:42:24.122Z,69.44
2023-03-27T03:44:51.664Z,67.91
2023-03-27T03:47:20.414Z,68.69
2023-03-27T03:49:48.167Z,69.30
2023-03-27T03:52:15.571Z,69.86
2023-03-27T03:54:43.219Z,69.86
2023-03-27T03:57:12.222Z,70.18
2023-03-27T03:59:39.453Z,70.60
2023-03-27T04:02:07.838Z,70.93
2023-03-27T04:04:36.958Z,71.20
2023-03-27T04:07:04.929Z,71.13
2023-03-27T04:09:32.089Z,71.38
2023-03-27T04:11:59.138Z,71.09
2023-03-27T04:14:26.638Z,71.20
2023-03-27T04:16:54.425Z,71.48
2023-03-27T04:19:22.622Z,69.97
2023-03-27T04:21:51.268Z,70.37
2023-03-27T04:24:19.387Z,70.63
2023-03-27T04:26:47.655Z,71.09
2023-03-27T04:29:15.187Z,71.44
2023-03-27T04:31:42.089Z,71.22
2023-03-27T04:34:09.146Z,71.68
2023-03-27T04:36:37.197Z,72.12
2023-03-27T04:39:05.868Z,72.08
2023-03-27T04:41:34.301Z,71.79
2023-03-27T04:44:01.527Z,71.59
2023-03-27T04:46:28.723Z,71.55
2023-03-27T04:48:56.856Z,71.06
2023-03-27T04:51:23.986Z,71.02
2023-03-27T04:53:51.727Z,71.04
2023-03-27T04:56:21.521Z,70.97
2023-03-27T04:58:50.990Z,70.99
2023-03-27T05:01:18.632Z,71.58
2023-03-27T05:03:46.407Z,71.62
2023-03-27T05:06:13.902Z,71.67
2023-03-27T05:08:40.887Z,71.23
2023-03-27T05:11:08.326Z,71.24
2023-03-27T05:13:39.382Z,70.92
2023-03-27T05:16:07.384Z,70.77
2023-03-27T05:18:35.837Z,70.29
2023-03-27T05:21:03.660Z,70.35
2023-03-27T05:23:31.054Z,70.70
2023-03-27T05:26:00.052Z,71.24
2023-03-27T05:28:28.761Z,71.00
2023-03-27T05:30:57.777Z,70.94
2023-03-27T05:33:26.056Z,70.99
2023-03-27T05:35:53.771Z,70.99
2023-03-27T05:38:21.313Z,71.13
2023-03-27T05:40:48.216Z,71.18
2023-03-27T05:43:16.432Z,70.53
2023-03-27T05:45:45.591Z,70.53
2023-03-27T05:48:14.978Z,70.11
2023-03-27T05:50:43.583Z,70.28
2023-03-27T05:53:12.049Z,70.89
2023-03-27T05:55:40.274Z,70.62
2023-03-27T05:58:07.487Z,70.22
2023-03-27T06:00:35.575Z,70.45
2023-03-27T06:03:04.271Z,70.77
2023-03-27T06:05:33.858Z,70.72
2023-03-27T06:08:02.394Z,70.88
2023-03-27T06:10:31.177Z,70.90
2023-03-27T06:13:04.939Z,71.04
2023-03-27T06:15:33.427Z,70.76
2023-03-27T06:18:01.686Z,70.46
2023-03-27T06:20:29.705Z,69.96
2023-03-27T06:23:01.369Z,69.75
2023-03-27T06:25:30.436Z,69.54
2023-03-27T06:27:57.755Z,69.53
2023-03-27T06:30:26.204Z,69.19
2023-03-27T06:32:56.387Z,68.89
2023-03-27T06:35:25.258Z,68.57
2023-03-27T06:37:53.237Z,68.33
2023-03-27T06:40:23.749Z,68.15
2023-03-27T06:42:53.160Z,67.50
2023-03-27T06:45:20.865Z,65.91
2023-03-27T06:47:54.780Z,65.73
2023-03-27T06:50:23.692Z,66.56
2023-03-27T06:52:51.152Z,67.58
2023-03-27T06:55:20.064Z,67.72
2023-03-27T06:57:50.507Z,67.58
2023-03-27T07:00:20.162Z,67.73
2023-03-27T07:02:47.337Z,67.80
2023-03-27T07:05:15.114Z,67.98
2023-03-27T07:07:45.730Z,68.40
2023-03-27T07:10:14.132Z,69.18
2023-03-27T07:12:45.732Z,69.38
2023-03-27T07:15:14.734Z,69.12
2023-03-27T07:17:48.716Z,69.34
2023-03-27T07:20:16.263Z,69.93
2023-03-27T07:22:44.888Z,70.84
2023-03-27T07:25:11.681Z,71.31
2023-03-27T07:27:38.765Z,71.46
2023-03-27T07:30:10.120Z,71.64
2023-03-27T07:32:43.058Z,72.70
2023-03-27T07:35:10.832Z,73.63
2023-03-27T07:37:39.095Z,74.14
2023-03-27T07:40:10.151Z,74.28
2023-03-27T07:42:40.293Z,74.36
2023-03-27T07:45:11.615Z,74.53
2023-03-27T07:47:44.150Z,74.80
2023-03-27T07:50:13.392Z,75.60
2023-03-27T07:52:42.505Z,75.85
2023-03-27T07:55:13.485Z,75.74
2023-03-27T07:57:57.998Z,75.87
2023-03-27T08:00:28.398Z,74.43
2023-03-27T08:03:05.969Z,73.29
2023-03-27T08:05:33.923Z,72.96
2023-03-27T08:08:05.620Z,72.23
2023-03-27T08:10:33.672Z,72.61
2023-03-27T08:13:01.896Z,72.34
2023-03-27T08:15:28.683Z,71.21
2023-03-27T08:17:59.531Z,69.29
2023-03-27T08:20:26.490Z,68.21
2023-03-27T08:22:53.565Z,68.61
2023-03-27T08:25:22.081Z,66.10
2023-03-27T08:27:51.141Z,63.84
2023-03-27T08:30:19.249Z,62.97
2023-03-27T08:32:46.887Z,64.13
2023-03-27T08:35:17.133Z,57.12
2023-03-27T08:37:44.379Z,55.84
2023-03-27T08:40:19.459Z,52.68
2023-03-27T08:42:53.530Z,48.82
2023-03-27T08:45:26.401Z,48.39
2023-03-27T08:48:01.123Z,47.27
2023-03-27T08:50:36.527Z,48.45
2023-03-27T08:53:11.926Z,46.12
2023-03-27T08:55:40.300Z,43.91
2023-03-27T08:58:18.796Z,42.64
2023-03-27T09:00:49.100Z,41.57
2023-03-27T09:03:23.889Z,40.68
2023-03-27T09:05:59.307Z,40.38
2023-03-27T09:08:43.943Z,37.21
2023-03-27T09:11:26.864Z,37.64
2023-03-27T09:13:53.979Z,37.34
2023-03-27T09:16:28.673Z,36.74
2023-03-27T09:19:03.686Z,36.38
2023-03-27T09:21:41.134Z,36.83
2023-03-27T09:24:15.729Z,37.81
2023-03-27T09:26:43.359Z,36.60
2023-03-27T09:29:20.483Z,36.16
2023-03-27T09:31:49.364Z,36.32
2023-03-27T09:34:26.962Z,36.15
2023-03-27T09:36:58.310Z,35.84
2023-03-27T09:39:30.347Z,35.86
2023-03-27T09:42:07.184Z,34.60
2023-03-27T09:44:40.564Z,34.99
2023-03-27T09:47:15.762Z,35.97
2023-03-27T09:49:48.846Z,35.29
2023-03-27T09:52:35.269Z,36.46
2023-03-27T09:55:02.507Z,36.45
2023-03-27T09:57:31.867Z,36.33
2023-03-27T10:00:01.496Z,36.72
2023-03-27T10:02:31.140Z,38.13
2023-03-27T10:05:00.737Z,37.78
2023-03-27T10:07:29.302Z,38.86
2023-03-27T10:10:07.125Z,37.72
2023-03-27T10:12:37.517Z,37.86
2023-03-27T10:15:06.945Z,37.34
2023-03-27T10:17:38.527Z,36.67
2023-03-27T10:20:13.071Z,37.70
2023-03-27T10:22:44.090Z,37.43
2023-03-27T10:25:21.237Z,37.74
2023-03-27T10:27:51.163Z,39.02
2023-03-27T10:30:29.570Z,38.63
2023-03-27T10:32:56.918Z,38.78
2023-03-27T10:35:27.175Z,38.47
2023-03-27T10:37:56.276Z,38.10
2023-03-27T10:40:26.750Z,39.52
2023-03-27T10:42:57.699Z,38.06
2023-03-27T10:47:55.343Z,36.24
2023-03-27T10:50:32.814Z,35.79
2023-03-27T10:53:12.685Z,36.12
2023-03-27T10:55:56.594Z,36.08
2023-03-27T10:58:31.472Z,35.34
2023-03-27T11:01:05.578Z,35.55
2023-03-27T11:03:40.278Z,36.77
2023-03-27T11:06:13.971Z,38.93
2023-03-27T11:08:52.348Z,39.17
2023-03-27T11:11:26.463Z,39.04
2023-03-27T11:13:58.773Z,38.19
2023-03-27T11:16:33.655Z,39.29
2023-03-27T11:19:25.216Z,39.17
2023-03-27T11:21:55.053Z,39.81
2023-03-27T11:24:34.140Z,38.81
2023-03-27T11:27:06.797Z,40.17
2023-03-27T11:29:40.100Z,37.80
2023-03-27T11:32:20.461Z,36.67
2023-03-27T11:34:54.343Z,36.76
2023-03-27T11:37:29.777Z,37.50
2023-03-27T11:40:03.400Z,37.42
2023-03-27T11:42:36.293Z,35.89
2023-03-27T11:45:03.421Z,36.94
2023-03-27T11:47:48.626Z,35.88
2023-03-27T11:50:26.347Z,35.68
2023-03-27T11:53:08.851Z,35.46
2023-03-27T11:55:47.085Z,34.83
2023-03-27T11:58:25.697Z,33.80
2023-03-27T12:01:05.624Z,32.84
2023-03-27T12:04:20.847Z,30.99
2023-03-27T12:06:55.119Z,30.75
2023-03-27T12:09:39.762Z,30.38
2023-03-27T12:12:27.131Z,29.94
2023-03-27T12:15:06.362Z,32.64
2023-03-27T12:17:48.375Z,31.16
2023-03-27T12:20:55.584Z,32.06
2023-03-27T12:23:31.711Z,31.67
2023-03-27T12:26:16.350Z,31.86
2023-03-27T12:28:58.242Z,32.04
2023-03-27T12:31:45.284Z,32.15
2023-03-27T12:34:28.451Z,31.90
2023-03-27T12:36:59.352Z,31.90
2023-03-27T12:39:27.866Z,32.11
2023-03-27T12:42:12.572Z,32.66
2023-03-27T12:45:05.679Z,32.55
2023-03-27T12:47:35.338Z,33.77
2023-03-27T12:50:17.186Z,34.46
2023-03-27T12:52:50.970Z,35.21
2023-03-27T12:55:33.291Z,34.75
2023-03-27T12:58:02.041Z,34.00
2023-03-27T13:00:33.349Z,34.29
2023-03-27T13:03:45.884Z,35.68
2023-03-27T13:06:22.370Z,35.45
2023-03-27T13:09:09.767Z,35.49
2023-03-27T13:11:48.435Z,34.44
2023-03-27T13:14:46.174Z,34.70
2023-03-27T13:17:42.637Z,33.13
2023-03-27T13:20:22.885Z,32.08
2023-03-27T13:23:16.165Z,31.86
2023-03-27T13:26:08.209Z,30.14
2023-03-27T13:28:38.919Z,29.53
2023-03-27T13:31:07.399Z,29.77
2023-03-27T13:33:47.764Z,30.09
2023-03-27T13:36:21.857Z,32.07
2023-03-27T13:39:14.542Z,32.09
2023-03-27T13:41:54.667Z,32.47
2023-03-27T13:44:33.093Z,32.67
2023-03-27T13:47:16.163Z,33.10
2023-03-27T13:50:08.545Z,33.69
2023-03-27T13:53:09.017Z,35.06
2023-03-27T13:55:57.063Z,32.74
2023-03-27T13:58:47.676Z,32.10
2023-03-27T14:01:34.529Z,32.77
2023-03-27T14:04:29.687Z,31.90
2023-03-27T14:07:44.191Z,32.07
2023-03-27T14:10:25.261Z,33.19
2023-03-27T14:13:09.115Z,32.17
2023-03-27T14:15:50.073Z,32.00
2023-03-27T14:18:54.011Z,29.84
2023-03-27T14:21:35.598Z,29.04
2023-03-27T14:24:19.120Z,29.02
2023-03-27T14:26:50.041Z,29.36
2023-03-27T14:29:17.169Z,30.22
2023-03-27T14:31:45.732Z,29.74
2023-03-27T14:34:19.475Z,29.81
2023-03-27T14:36:46.437Z,29.46
2023-03-27T14:39:16.125Z,29.91
2023-03-27T14:41:57.533Z,30.78
2023-03-27T14:44:27.226Z,32.32
2023-03-27T14:47:01.706Z,33.18
2023-03-27T14:49:34.766Z,32.37
2023-03-27T14:52:05.690Z,32.40
2023-03-27T14:54:44.624Z,32.28
2023-03-27T14:57:25.060Z,31.81
2023-03-27T14:59:54.130Z,32.78
2023-03-27T15:02:26.010Z,33.84
2023-03-27T15:04:54.940Z,33.17
2023-03-27T15:07:24.443Z,32.57
2023-03-27T15:10:01.918Z,32.87
2023-03-27T15:12:32.631Z,31.57
2023-03-27T15:14:59.623Z,29.99
2023-03-27T15:17:28.888Z,28.95
2023-03-27T15:20:01.845Z,28.58
2023-03-27T15:22:35.336Z,29.91
2023-03-27T15:25:07.914Z,30.42
2023-03-27T15:27:42.950Z,30.70
2023-03-27T15:30:24.531Z,31.29
2023-03-27T15:32:55.213Z,30.92
2023-03-27T15:35:29.646Z,31.03
2023-03-27T15:37:59.471Z,31.25
2023-03-27T15:40:32.844Z,30.30
2023-03-27T15:43:23.677Z,29.37
2023-03-27T15:46:13.788Z,28.19
2023-03-27T15:48:43.557Z,28.78
2023-03-27T15:51:13.103Z,28.13
2023-03-27T15:53:42.763Z,28.56
2023-03-27T15:56:20.951Z,28.87
2023-03-27T15:58:53.314Z,27.96
2023-03-27T16:01:23.774Z,28.00
2023-03-27T16:03:51.733Z,28.85
2023-03-27T16:06:29.343Z,28.98
2023-03-27T16:08:57.210Z,30.51
2023-03-27T16:11:38.506Z,31.47
2023-03-27T16:14:21.822Z,30.88
2023-03-27T16:16:48.732Z,31.30
2023-03-27T16:19:16.867Z,30.54
2023-03-27T16:21:55.598Z,28.81
2023-03-27T16:24:23.169Z,28.74
2023-03-27T16:26:51.684Z,29.24
2023-03-27T16:29:22.120Z,29.36
2023-03-27T16:31:50.053Z,29.90
2023-03-27T16:34:22.207Z,29.54
2023-03-27T16:36:52.059Z,29.22
2023-03-27T16:39:19.976Z,27.98
2023-03-27T16:41:49.090Z,27.84
2023-03-27T16:44:16.089Z,28.79
2023-03-27T16:46:46.438Z,28.22
2023-03-27T16:49:14.245Z,28.42
2023-03-27T16:51:41.124Z,27.54
2023-03-27T16:54:09.196Z,27.92
2023-03-27T16:56:37.937Z,28.38
2023-03-27T16:59:05.544Z,28.82
2023-03-27T17:01:32.525Z,28.89
2023-03-27T17:04:01.261Z,29.02
2023-03-27T17:06:28.414Z,28.29
2023-03-27T17:08:55.758Z,28.52
2023-03-27T17:11:23.723Z,28.63
2023-03-27T17:13:52.241Z,28.44
2023-03-27T17:16:19.509Z,27.94
2023-03-27T17:18:48.233Z,28.22
2023-03-27T17:21:17.641Z,28.45
2023-03-27T17:23:44.732Z,27.53
2023-03-27T17:26:13.530Z,27.26
2023-03-27T17:28:43.530Z,27.07
2023-03-27T17:31:11.649Z,28.15
2023-03-27T17:33:39.092Z,27.78
2023-03-27T17:36:13.090Z,27.70
2023-03-27T17:38:42.061Z,28.34
2023-03-27T17:41:10.442Z,29.03
2023-03-27T17:43:37.903Z,29.20
2023-03-27T17:46:06.150Z,29.27
2023-03-27T17:48:33.666Z,29.37
2023-03-27T17:51:09.012Z,29.22
2023-03-27T17:53:39.136Z,29.17
2023-03-27T17:56:09.971Z,29.45
2023-03-27T17:58:37.165Z,30.13
2023-03-27T18:01:16.791Z,30.29
2023-03-27T18:03:44.173Z,30.65
2023-03-27T18:06:11.688Z,30.72
2023-03-27T18:08:38.630Z,30.84
2023-03-27T18:11:11.200Z,30.91
2023-03-27T18:13:39.356Z,31.12
2023-03-27T18:16:08.283Z,31.35
2023-03-27T18:18:36.227Z,31.82
2023-03-27T18:21:04.627Z,32.25
2023-03-27T18:23:32.797Z,32.78
2023-03-27T18:26:03.473Z,32.94
2023-03-27T18:28:32.184Z,33.02
2023-03-27T18:31:00.432Z,33.13
2023-03-27T18:33:27.624Z,33.83
2023-03-27T18:35:57.554Z,33.87
2023-03-27T18:38:26.114Z,34.11
2023-03-27T18:40:55.179Z,34.13
2023-03-27T18:43:22.205Z,34.44
2023-03-27T18:45:58.037Z,34.40
2023-03-27T18:48:27.602Z,34.38
2023-03-27T18:50:57.960Z,34.59
2023-03-27T18:53:27.976Z,35.06
2023-03-27T18:55:55.507Z,34.93
2023-03-27T18:58:25.541Z,35.08
2023-03-27T19:00:53.483Z,35.31
2023-03-27T19:03:25.362Z,35.23
2023-03-27T19:05:53.387Z,35.30
2023-03-27T19:08:21.902Z,35.25
2023-03-27T19:10:49.201Z,35.25
2023-03-27T19:13:16.177Z,35.46
2023-03-27T19:15:44.821Z,35.62
2023-03-27T19:18:12.614Z,35.83
2023-03-27T19:20:42.695Z,35.85
2023-03-27T19:23:09.628Z,36.02
2023-03-27T19:25:37.264Z,36.22
2023-03-27T19:28:06.289Z,36.24
2023-03-27T19:30:33.791Z,36.50
2023-03-27T19:33:00.730Z,36.80
2023-03-27T19:35:28.330Z,36.70
2023-03-27T19:37:57.668Z,37.26
2023-03-27T19:40:24.844Z,37.40
2023-03-27T19:42:52.740Z,37.72
2023-03-27T19:45:19.778Z,37.91
2023-03-27T19:47:47.772Z,37.88
2023-03-27T19:50:14.678Z,38.02
2023-03-27T19:52:42.383Z,38.36
2023-03-27T19:55:11.229Z,38.60
2023-03-27T19:57:40.675Z,39.06
2023-03-27T20:00:09.342Z,39.05
2023-03-27T20:02:37.658Z,39.34
2023-03-27T20:05:05.937Z,39.42
2023-03-27T20:07:34.957Z,39.52
2023-03-27T20:10:02.479Z,39.78
2023-03-27T20:12:33.140Z,39.83
2023-03-27T20:15:11.068Z,40.04
2023-03-27T20:17:39.511Z,39.96
2023-03-27T20:20:07.996Z,39.94
2023-03-27T20:22:40.735Z,40.29
2023-03-27T20:25:14.069Z,40.02
2023-03-27T20:27:43.382Z,40.12
2023-03-27T20:30:11.042Z,40.11
2023-03-27T20:32:37.876Z,40.42
2023-03-27T20:35:16.502Z,40.12
2023-03-27T20:37:50.758Z,40.05
2023-03-27T20:40:17.912Z,40.11
2023-03-27T20:42:46.734Z,40.22
2023-03-27T20:45:14.798Z,40.03
2023-03-27T20:47:41.900Z,39.98
2023-03-27T20:50:10.431Z,40.03
2023-03-27T20:52:38.607Z,39.93
2023-03-27T20:55:06.579Z,39.74
2023-03-27T20:57:34.561Z,39.75
2023-03-27T21:00:04.900Z,39.92
2023-03-27T21:02:33.287Z,40.10
2023-03-27T21:05:00.267Z,40.17
2023-03-27T21:07:27.849Z,39.67
2023-03-27T21:09:55.260Z,39.90
2023-03-27T21:12:22.161Z,39.74
2023-03-27T21:14:50.498Z,39.76
2023-03-27T21:17:20.535Z,39.92
2023-03-27T21:19:47.923Z,40.10
2023-03-27T21:22:16.872Z,39.92
2023-03-27T21:24:45.761Z,39.91
2023-03-27T21:27:13.286Z,40.04
2023-03-27T21:29:42.165Z,40.09
2023-03-27T21:32:09.470Z,40.30
2023-03-27T21:34:38.102Z,40.45
2023-03-27T21:37:05.316Z,40.25
2023-03-27T21:39:32.317Z,40.35
2023-03-27T21:41:59.248Z,40.28
2023-03-27T21:44:26.061Z,40.32
2023-03-27T21:46:52.867Z,40.60
2023-03-27T21:49:19.974Z,40.44
2023-03-27T21:51:48.670Z,40.76
2023-03-27T21:54:16.321Z,40.58
2023-03-27T21:56:43.276Z,40.91
2023-03-27T21:59:10.356Z,40.74
2023-03-27T22:01:37.732Z,40.85
2023-03-27T22:04:04.685Z,40.79
2023-03-27T22:06:31.895Z,40.66
2023-03-27T22:09:01.132Z,40.98
2023-03-27T22:11:29.233Z,40.90
2023-03-27T22:13:56.364Z,40.56
2023-03-27T22:16:24.135Z,40.85
2023-03-27T22:18:51.642Z,40.78
2023-03-27T22:21:21.130Z,40.92
2023-03-27T22:23:49.173Z,40.83
2023-03-27T22:26:18.702Z,40.99
2023-03-27T22:28:46.654Z,41.26
2023-03-27T22:31:14.916Z,40.97
2023-03-27T22:33:42.399Z,40.98
2023-03-27T22:36:12.041Z,41.33
2023-03-27T22:38:40.537Z,41.61
2023-03-27T22:41:09.441Z,41.47
2023-03-27T22:43:39.397Z,41.45
2023-03-27T22:46:08.485Z,41.87
2023-03-27T22:48:36.971Z,41.64
2023-03-27T22:51:04.929Z,41.67
2023-03-27T22:53:32.645Z,41.56
2023-03-27T22:56:01.630Z,41.75
2023-03-27T22:58:30.548Z,41.24
2023-03-27T23:01:00.734Z,41.51
2023-03-27T23:03:28.510Z,41.32
2023-03-27T23:05:55.676Z,41.17
2023-03-27T23:08:25.799Z,41.20
2023-03-27T23:10:56.405Z,41.28
2023-03-27T23:13:23.522Z,41.35
2023-03-27T23:15:52.427Z,41.27
2023-03-27T23:18:22.090Z,41.60
2023-03-27T23:20:54.205Z,41.58
2023-03-27T23:23:21.095Z,41.63
2023-03-27T23:25:48.420Z,42.06
2023-03-27T23:28:15.904Z,42.39
2023-03-27T23:30:43.097Z,42.28
2023-03-27T23:33:10.513Z,42.39
2023-03-27T23:35:40.718Z,42.64
2023-03-27T23:38:07.937Z,42.77
2023-03-27T23:40:35.779Z,43.15
2023-03-27T23:43:02.932Z,43.36
2023-03-27T23:45:29.915Z,43.83
2023-03-27T23:47:57.231Z,44.92
2023-03-27T23:50:24.121Z,45.71
2023-03-27T23:52:52.709Z,45.98
2023-03-27T23:55:19.853Z,45.94
2023-03-27T23:57:46.757Z,47.02
